sensor_id;sensor_type;location;lat;lon;timestamp;P1;durP1;ratioP1;P2;durP2;ratioP2
15116;SDS011;7659;51.038;13.786;2023-03-21T00:01:15;18.52;;;13.45;;
15116;SDS011;7659;51.038;13.786;2023-03-21T00:03:40;18.83;;;14.18;;
15116;SDS011;7659;51.038;13.786;2023-03-21T00:06:09;20.67;;;14.93;;
15116;SDS011;7659;51.038;13.786;2023-03-21T00:08:35;22.27;;;14.32;;
15116;SDS011;7659;51.038;13.786;2023-03-21T00:11:02;23.23;;;15.27;;
15116;SDS011;7659;51.038;13.786;2023-03-21T00:13:28;23.83;;;15.15;;
15116;SDS011;7659;51.038;13.786;2023-03-21T00:16:06;23.42;;;15.15;;
15116;SDS011;7659;51.038;13.786;2023-03-21T00:18:34;22.38;;;14.32;;
15116;SDS011;7659;51.038;13.786;2023-03-21T00:21:06;19.05;;;13.75;;
15116;SDS011;7659;51.038;13.786;2023-03-21T00:23:31;18.83;;;12.85;;
15116;SDS011;7659;51.038;13.786;2023-03-21T00:25:57;16.60;;;13.63;;
15116;SDS011;7659;51.038;13.786;2023-03-21T00:28:22;18.27;;;13.00;;
15116;SDS011;7659;51.038;13.786;2023-03-21T00:30:48;20.08;;;14.63;;
15116;SDS011;7659;51.038;13.786;2023-03-21T00:33:14;18.27;;;14.13;;
15116;SDS011;7659;51.038;13.786;2023-03-21T00:35:40;23.90;;;15.52;;
15116;SDS011;7659;51.038;13.786;2023-03-21T00:38:12;21.40;;;15.82;;
15116;SDS011;7659;51.038;13.786;2023-03-21T00:40:38;20.92;;;16.50;;
15116;SDS011;7659;51.038;13.786;2023-03-21T00:43:03;19.83;;;15.90;;
15116;SDS011;7659;51.038;13.786;2023-03-21T00:45:29;21.17;;;15.77;;
15116;SDS011;7659;51.038;13.786;2023-03-21T00:47:56;22.83;;;15.93;;
15116;SDS011;7659;51.038;13.786;2023-03-21T00:50:21;21.27;;;16.42;;
15116;SDS011;7659;51.038;13.786;2023-03-21T00:52:47;23.77;;;17.15;;
15116;SDS011;7659;51.038;13.786;2023-03-21T00:55:13;23.77;;;17.63;;
15116;SDS011;7659;51.038;13.786;2023-03-21T00:57:39;23.92;;;17.70;;
15116;SDS011;7659;51.038;13.786;2023-03-21T01:00:06;26.00;;;18.08;;
15116;SDS011;7659;51.038;13.786;2023-03-21T01:02:32;27.83;;;18.67;;
15116;SDS011;7659;51.038;13.786;2023-03-21T01:04:58;26.17;;;20.23;;
15116;SDS011;7659;51.038;13.786;2023-03-21T01:07:23;34.33;;;22.35;;
15116;SDS011;7659;51.038;13.786;2023-03-21T01:09:49;33.05;;;22.25;;
15116;SDS011;7659;51.038;13.786;2023-03-21T01:12:17;36.50;;;23.77;;
15116;SDS011;7659;51.038;13.786;2023-03-21T01:14:42;39.15;;;25.23;;
15116;SDS011;7659;51.038;13.786;2023-03-21T01:17:08;41.42;;;25.33;;
15116;SDS011;7659;51.038;13.786;2023-03-21T01:19:33;35.83;;;26.48;;
15116;SDS011;7659;51.038;13.786;2023-03-21T01:21:59;43.58;;;25.92;;
15116;SDS011;7659;51.038;13.786;2023-03-21T01:24:25;37.78;;;25.30;;
15116;SDS011;7659;51.038;13.786;2023-03-21T01:26:51;39.35;;;25.20;;
15116;SDS011;7659;51.038;13.786;2023-03-21T01:29:16;37.00;;;25.80;;
15116;SDS011;7659;51.038;13.786;2023-03-21T01:31:42;38.97;;;25.92;;
15116;SDS011;7659;51.038;13.786;2023-03-21T01:34:07;36.78;;;25.90;;
15116;SDS011;7659;51.038;13.786;2023-03-21T01:36:33;42.35;;;26.10;;
15116;SDS011;7659;51.038;13.786;2023-03-21T01:39:03;38.90;;;27.27;;
15116;SDS011;7659;51.038;13.786;2023-03-21T01:41:33;38.22;;;26.50;;
15116;SDS011;7659;51.038;13.786;2023-03-21T01:44:00;35.90;;;26.48;;
15116;SDS011;7659;51.038;13.786;2023-03-21T01:46:40;35.15;;;26.33;;
15116;SDS011;7659;51.038;13.786;2023-03-21T01:49:19;35.50;;;27.15;;
15116;SDS011;7659;51.038;13.786;2023-03-21T01:51:52;41.90;;;29.53;;
15116;SDS011;7659;51.038;13.786;2023-03-21T01:54:23;37.42;;;26.95;;
15116;SDS011;7659;51.038;13.786;2023-03-21T01:56:52;38.72;;;28.08;;
15116;SDS011;7659;51.038;13.786;2023-03-21T01:59:20;37.03;;;26.63;;
15116;SDS011;7659;51.038;13.786;2023-03-21T02:02:06;39.25;;;28.63;;
15116;SDS011;7659;51.038;13.786;2023-03-21T02:04:39;40.95;;;28.00;;
15116;SDS011;7659;51.038;13.786;2023-03-21T02:07:18;40.83;;;28.27;;
15116;SDS011;7659;51.038;13.786;2023-03-21T02:09:52;36.60;;;28.35;;
15116;SDS011;7659;51.038;13.786;2023-03-21T02:12:21;38.85;;;28.55;;
15116;SDS011;7659;51.038;13.786;2023-03-21T02:14:47;44.83;;;28.90;;
15116;SDS011;7659;51.038;13.786;2023-03-21T02:28:32;37.23;;;27.67;;
15116;SDS011;7659;51.038;13.786;2023-03-21T02:36:14;41.47;;;29.08;;
15116;SDS011;7659;51.038;13.786;2023-03-21T02:41:38;39.17;;;27.63;;
15116;SDS011;7659;51.038;13.786;2023-03-21T02:46:54;43.88;;;30.73;;
15116;SDS011;7659;51.038;13.786;2023-03-21T02:49:25;40.08;;;29.88;;
15116;SDS011;7659;51.038;13.786;2023-03-21T02:51:53;42.47;;;29.10;;
15116;SDS011;7659;51.038;13.786;2023-03-21T02:54:22;40.72;;;28.13;;
15116;SDS011;7659;51.038;13.786;2023-03-21T02:56:48;40.85;;;29.25;;
15116;SDS011;7659;51.038;13.786;2023-03-21T02:59:15;33.40;;;25.88;;
15116;SDS011;7659;51.038;13.786;2023-03-21T03:01:42;29.63;;;24.75;;
15116;SDS011;7659;51.038;13.786;2023-03-21T03:04:16;33.80;;;24.75;;
15116;SDS011;7659;51.038;13.786;2023-03-21T03:06:46;33.20;;;25.10;;
15116;SDS011;7659;51.038;13.786;2023-03-21T03:11:48;33.00;;;26.02;;
15116;SDS011;7659;51.038;13.786;2023-03-21T03:17:07;38.20;;;26.42;;
15116;SDS011;7659;51.038;13.786;2023-03-21T03:19:35;35.63;;;27.10;;
15116;SDS011;7659;51.038;13.786;2023-03-21T03:24:50;42.13;;;27.33;;
15116;SDS011;7659;51.038;13.786;2023-03-21T03:27:15;34.72;;;26.92;;
15116;SDS011;7659;51.038;13.786;2023-03-21T03:29:43;35.83;;;27.52;;
15116;SDS011;7659;51.038;13.786;2023-03-21T03:32:19;36.35;;;27.38;;
15116;SDS011;7659;51.038;13.786;2023-03-21T03:34:47;38.55;;;28.85;;
15116;SDS011;7659;51.038;13.786;2023-03-21T03:37:19;39.05;;;28.92;;
15116;SDS011;7659;51.038;13.786;2023-03-21T03:39:47;34.92;;;27.65;;
15116;SDS011;7659;51.038;13.786;2023-03-21T03:42:22;35.47;;;27.58;;
15116;SDS011;7659;51.038;13.786;2023-03-21T03:44:54;38.70;;;28.33;;
15116;SDS011;7659;51.038;13.786;2023-03-21T03:49:51;37.92;;;28.17;;
15116;SDS011;7659;51.038;13.786;2023-03-21T03:52:21;40.42;;;27.85;;
15116;SDS011;7659;51.038;13.786;2023-03-21T03:54:58;37.72;;;28.38;;
15116;SDS011;7659;51.038;13.786;2023-03-21T03:57:27;38.92;;;27.52;;
15116;SDS011;7659;51.038;13.786;2023-03-21T03:59:54;34.83;;;28.30;;
15116;SDS011;7659;51.038;13.786;2023-03-21T04:02:24;36.13;;;29.60;;
15116;SDS011;7659;51.038;13.786;2023-03-21T04:04:49;36.67;;;28.88;;
15116;SDS011;7659;51.038;13.786;2023-03-21T04:07:18;36.33;;;28.92;;
15116;SDS011;7659;51.038;13.786;2023-03-21T04:09:44;38.20;;;29.38;;
15116;SDS011;7659;51.038;13.786;2023-03-21T04:12:11;41.22;;;29.38;;
15116;SDS011;7659;51.038;13.786;2023-03-21T04:14:39;39.03;;;30.60;;
15116;SDS011;7659;51.038;13.786;2023-03-21T04:17:04;39.13;;;28.05;;
15116;SDS011;7659;51.038;13.786;2023-03-21T04:19:30;35.95;;;28.77;;
15116;SDS011;7659;51.038;13.786;2023-03-21T04:21:57;36.58;;;27.73;;
15116;SDS011;7659;51.038;13.786;2023-03-21T04:24:22;40.47;;;29.02;;
15116;SDS011;7659;51.038;13.786;2023-03-21T04:26:48;38.33;;;30.40;;
15116;SDS011;7659;51.038;13.786;2023-03-21T04:29:33;39.83;;;31.33;;
15116;SDS011;7659;51.038;13.786;2023-03-21T04:32:18;46.88;;;31.63;;
15116;SDS011;7659;51.038;13.786;2023-03-21T04:34:55;49.88;;;30.73;;
15116;SDS011;7659;51.038;13.786;2023-03-21T04:37:22;38.60;;;28.90;;
15116;SDS011;7659;51.038;13.786;2023-03-21T04:39:49;41.47;;;31.10;;
15116;SDS011;7659;51.038;13.786;2023-03-21T04:42:16;41.80;;;30.95;;
15116;SDS011;7659;51.038;13.786;2023-03-21T04:44:43;37.83;;;30.25;;
15116;SDS011;7659;51.038;13.786;2023-03-21T04:47:09;43.85;;;30.50;;
15116;SDS011;7659;51.038;13.786;2023-03-21T04:49:35;48.45;;;30.75;;
15116;SDS011;7659;51.038;13.786;2023-03-21T04:52:01;37.75;;;29.08;;
15116;SDS011;7659;51.038;13.786;2023-03-21T04:54:27;40.05;;;31.05;;
15116;SDS011;7659;51.038;13.786;2023-03-21T04:56:52;41.55;;;33.38;;
15116;SDS011;7659;51.038;13.786;2023-03-21T04:59:18;40.10;;;30.30;;
15116;SDS011;7659;51.038;13.786;2023-03-21T05:01:44;37.97;;;30.25;;
15116;SDS011;7659;51.038;13.786;2023-03-21T05:04:10;43.20;;;33.47;;
15116;SDS011;7659;51.038;13.786;2023-03-21T05:06:37;39.13;;;30.45;;
15116;SDS011;7659;51.038;13.786;2023-03-21T05:09:03;41.60;;;31.00;;
15116;SDS011;7659;51.038;13.786;2023-03-21T05:11:31;39.13;;;31.80;;
15116;SDS011;7659;51.038;13.786;2023-03-21T05:13:58;41.53;;;31.60;;
15116;SDS011;7659;51.038;13.786;2023-03-21T05:16:24;40.05;;;31.20;;
15116;SDS011;7659;51.038;13.786;2023-03-21T05:18:52;40.88;;;32.75;;
15116;SDS011;7659;51.038;13.786;2023-03-21T05:21:20;41.58;;;31.20;;
15116;SDS011;7659;51.038;13.786;2023-03-21T05:23:47;42.33;;;34.20;;
15116;SDS011;7659;51.038;13.786;2023-03-21T05:26:18;45.17;;;32.88;;
15116;SDS011;7659;51.038;13.786;2023-03-21T05:28:55;40.72;;;33.03;;
15116;SDS011;7659;51.038;13.786;2023-03-21T05:31:20;39.83;;;29.92;;
15116;SDS011;7659;51.038;13.786;2023-03-21T05:33:50;40.13;;;30.40;;
15116;SDS011;7659;51.038;13.786;2023-03-21T05:36:17;34.22;;;27.02;;
15116;SDS011;7659;51.038;13.786;2023-03-21T05:38:43;34.33;;;25.40;;
15116;SDS011;7659;51.038;13.786;2023-03-21T05:41:14;29.88;;;21.75;;
15116;SDS011;7659;51.038;13.786;2023-03-21T05:43:40;24.55;;;19.10;;
15116;SDS011;7659;51.038;13.786;2023-03-21T05:46:06;25.13;;;19.30;;
15116;SDS011;7659;51.038;13.786;2023-03-21T05:48:32;21.10;;;17.73;;
15116;SDS011;7659;51.038;13.786;2023-03-21T05:51:12;22.63;;;17.65;;
15116;SDS011;7659;51.038;13.786;2023-03-21T05:53:38;20.10;;;16.38;;
15116;SDS011;7659;51.038;13.786;2023-03-21T05:56:04;21.77;;;17.48;;
15116;SDS011;7659;51.038;13.786;2023-03-21T05:58:40;24.92;;;19.83;;
15116;SDS011;7659;51.038;13.786;2023-03-21T06:01:06;25.45;;;18.58;;
15116;SDS011;7659;51.038;13.786;2023-03-21T06:03:34;23.10;;;16.73;;
15116;SDS011;7659;51.038;13.786;2023-03-21T06:06:06;21.85;;;16.05;;
15116;SDS011;7659;51.038;13.786;2023-03-21T06:08:35;25.88;;;13.50;;
15116;SDS011;7659;51.038;13.786;2023-03-21T06:11:01;20.45;;;12.82;;
15116;SDS011;7659;51.038;13.786;2023-03-21T06:13:28;23.25;;;14.15;;
15116;SDS011;7659;51.038;13.786;2023-03-21T06:15:56;18.33;;;13.20;;
15116;SDS011;7659;51.038;13.786;2023-03-21T06:18:24;17.95;;;11.30;;
15116;SDS011;7659;51.038;13.786;2023-03-21T06:20:58;19.80;;;11.43;;
15116;SDS011;7659;51.038;13.786;2023-03-21T06:23:24;15.65;;;9.13;;
15116;SDS011;7659;51.038;13.786;2023-03-21T06:25:50;16.08;;;8.90;;
15116;SDS011;7659;51.038;13.786;2023-03-21T06:28:16;15.90;;;9.07;;
15116;SDS011;7659;51.038;13.786;2023-03-21T06:30:42;15.60;;;9.10;;
15116;SDS011;7659;51.038;13.786;2023-03-21T06:33:16;13.43;;;9.20;;
15116;SDS011;7659;51.038;13.786;2023-03-21T06:35:43;11.82;;;8.27;;
15116;SDS011;7659;51.038;13.786;2023-03-21T06:38:09;16.02;;;10.38;;
15116;SDS011;7659;51.038;13.786;2023-03-21T06:40:36;14.48;;;8.57;;
15116;SDS011;7659;51.038;13.786;2023-03-21T06:43:02;15.93;;;9.18;;
15116;SDS011;7659;51.038;13.786;2023-03-21T06:45:28;13.45;;;8.23;;
15116;SDS011;7659;51.038;13.786;2023-03-21T06:47:54;14.85;;;8.13;;
15116;SDS011;7659;51.038;13.786;2023-03-21T06:50:30;14.68;;;8.68;;
15116;SDS011;7659;51.038;13.786;2023-03-21T06:52:57;15.38;;;8.80;;
15116;SDS011;7659;51.038;13.786;2023-03-21T06:55:24;12.80;;;8.27;;
15116;SDS011;7659;51.038;13.786;2023-03-21T06:57:52;14.40;;;8.38;;
15116;SDS011;7659;51.038;13.786;2023-03-21T07:00:19;14.25;;;8.48;;
15116;SDS011;7659;51.038;13.786;2023-03-21T07:02:45;15.27;;;8.25;;
15116;SDS011;7659;51.038;13.786;2023-03-21T07:05:15;11.07;;;7.65;;
15116;SDS011;7659;51.038;13.786;2023-03-21T07:07:42;10.18;;;8.50;;
15116;SDS011;7659;51.038;13.786;2023-03-21T07:10:07;15.80;;;8.18;;
15116;SDS011;7659;51.038;13.786;2023-03-21T07:15:14;12.48;;;7.72;;
15116;SDS011;7659;51.038;13.786;2023-03-21T07:17:42;14.48;;;8.35;;
15116;SDS011;7659;51.038;13.786;2023-03-21T07:20:08;13.85;;;7.70;;
15116;SDS011;7659;51.038;13.786;2023-03-21T07:22:34;13.20;;;8.15;;
15116;SDS011;7659;51.038;13.786;2023-03-21T07:25:00;18.00;;;8.02;;
15116;SDS011;7659;51.038;13.786;2023-03-21T07:27:25;11.57;;;7.50;;
15116;SDS011;7659;51.038;13.786;2023-03-21T07:29:51;10.35;;;7.72;;
15116;SDS011;7659;51.038;13.786;2023-03-21T07:32:16;11.55;;;8.00;;
15116;SDS011;7659;51.038;13.786;2023-03-21T07:34:42;11.98;;;7.70;;
15116;SDS011;7659;51.038;13.786;2023-03-21T07:37:07;11.20;;;7.85;;
15116;SDS011;7659;51.038;13.786;2023-03-21T07:39:33;12.50;;;7.93;;
15116;SDS011;7659;51.038;13.786;2023-03-21T07:41:59;10.75;;;7.32;;
15116;SDS011;7659;51.038;13.786;2023-03-21T07:44:33;14.20;;;8.98;;
15116;SDS011;7659;51.038;13.786;2023-03-21T07:47:01;20.83;;;8.85;;
15116;SDS011;7659;51.038;13.786;2023-03-21T07:49:27;16.85;;;8.32;;
15116;SDS011;7659;51.038;13.786;2023-03-21T07:51:52;14.63;;;8.30;;
15116;SDS011;7659;51.038;13.786;2023-03-21T07:54:18;18.27;;;8.70;;
15116;SDS011;7659;51.038;13.786;2023-03-21T07:56:46;14.18;;;8.63;;
15116;SDS011;7659;51.038;13.786;2023-03-21T07:59:11;12.45;;;8.57;;
15116;SDS011;7659;51.038;13.786;2023-03-21T08:01:37;12.18;;;8.75;;
15116;SDS011;7659;51.038;13.786;2023-03-21T08:04:02;13.68;;;8.63;;
15116;SDS011;7659;51.038;13.786;2023-03-21T08:06:28;18.23;;;9.32;;
15116;SDS011;7659;51.038;13.786;2023-03-21T08:08:56;12.10;;;8.90;;
15116;SDS011;7659;51.038;13.786;2023-03-21T08:11:22;12.90;;;8.95;;
15116;SDS011;7659;51.038;13.786;2023-03-21T08:13:48;16.00;;;8.63;;
15116;SDS011;7659;51.038;13.786;2023-03-21T08:16:15;15.55;;;9.32;;
15116;SDS011;7659;51.038;13.786;2023-03-21T08:18:41;18.77;;;9.60;;
15116;SDS011;7659;51.038;13.786;2023-03-21T08:21:07;14.55;;;8.63;;
15116;SDS011;7659;51.038;13.786;2023-03-21T08:23:32;14.82;;;8.07;;
15116;SDS011;7659;51.038;13.786;2023-03-21T08:25:59;11.98;;;8.52;;
15116;SDS011;7659;51.038;13.786;2023-03-21T08:28:26;15.35;;;7.93;;
15116;SDS011;7659;51.038;13.786;2023-03-21T08:30:51;17.50;;;8.55;;
15116;SDS011;7659;51.038;13.786;2023-03-21T08:33:17;15.63;;;7.80;;
15116;SDS011;7659;51.038;13.786;2023-03-21T08:35:43;17.88;;;8.90;;
15116;SDS011;7659;51.038;13.786;2023-03-21T08:38:08;15.93;;;8.25;;
15116;SDS011;7659;51.038;13.786;2023-03-21T08:40:34;16.92;;;8.60;;
15116;SDS011;7659;51.038;13.786;2023-03-21T08:43:00;13.88;;;8.13;;
15116;SDS011;7659;51.038;13.786;2023-03-21T08:45:25;12.82;;;7.15;;
15116;SDS011;7659;51.038;13.786;2023-03-21T08:47:52;14.05;;;7.57;;
15116;SDS011;7659;51.038;13.786;2023-03-21T08:50:18;10.45;;;7.28;;
15116;SDS011;7659;51.038;13.786;2023-03-21T08:52:44;11.82;;;7.47;;
15116;SDS011;7659;51.038;13.786;2023-03-21T08:55:11;12.07;;;7.03;;
15116;SDS011;7659;51.038;13.786;2023-03-21T08:57:37;9.95;;;6.93;;
15116;SDS011;7659;51.038;13.786;2023-03-21T09:00:04;14.50;;;7.53;;
15116;SDS011;7659;51.038;13.786;2023-03-21T09:02:42;11.02;;;7.07;;
15116;SDS011;7659;51.038;13.786;2023-03-21T09:05:08;11.20;;;7.20;;
15116;SDS011;7659;51.038;13.786;2023-03-21T09:07:36;12.23;;;7.28;;
15116;SDS011;7659;51.038;13.786;2023-03-21T09:10:03;12.75;;;7.03;;
15116;SDS011;7659;51.038;13.786;2023-03-21T09:12:29;9.93;;;6.95;;
15116;SDS011;7659;51.038;13.786;2023-03-21T09:14:54;10.88;;;6.10;;
15116;SDS011;7659;51.038;13.786;2023-03-21T09:17:20;12.07;;;6.43;;
15116;SDS011;7659;51.038;13.786;2023-03-21T09:19:45;8.52;;;5.85;;
15116;SDS011;7659;51.038;13.786;2023-03-21T09:22:11;11.38;;;6.40;;
15116;SDS011;7659;51.038;13.786;2023-03-21T09:24:39;9.98;;;5.78;;
15116;SDS011;7659;51.038;13.786;2023-03-21T09:27:05;9.32;;;5.80;;
15116;SDS011;7659;51.038;13.786;2023-03-21T09:29:32;11.57;;;5.93;;
15116;SDS011;7659;51.038;13.786;2023-03-21T09:31:58;21.23;;;5.95;;
15116;SDS011;7659;51.038;13.786;2023-03-21T09:34:24;9.75;;;5.63;;
15116;SDS011;7659;51.038;13.786;2023-03-21T09:36:50;9.63;;;5.68;;
15116;SDS011;7659;51.038;13.786;2023-03-21T09:39:21;11.27;;;5.97;;
15116;SDS011;7659;51.038;13.786;2023-03-21T09:42:01;9.90;;;5.38;;
15116;SDS011;7659;51.038;13.786;2023-03-21T09:49:57;11.13;;;5.22;;
15116;SDS011;7659;51.038;13.786;2023-03-21T09:52:36;10.98;;;4.78;;
15116;SDS011;7659;51.038;13.786;2023-03-21T09:55:08;7.93;;;4.20;;
15116;SDS011;7659;51.038;13.786;2023-03-21T09:57:44;10.05;;;4.68;;
15116;SDS011;7659;51.038;13.786;2023-03-21T10:00:16;8.40;;;5.10;;
15116;SDS011;7659;51.038;13.786;2023-03-21T10:02:46;8.17;;;4.80;;
15116;SDS011;7659;51.038;13.786;2023-03-21T10:05:17;9.05;;;4.95;;
15116;SDS011;7659;51.038;13.786;2023-03-21T10:07:45;9.85;;;4.55;;
15116;SDS011;7659;51.038;13.786;2023-03-21T10:10:22;7.22;;;4.32;;
15116;SDS011;7659;51.038;13.786;2023-03-21T10:12:51;8.15;;;4.18;;
15116;SDS011;7659;51.038;13.786;2023-03-21T10:15:18;6.18;;;4.15;;
15116;SDS011;7659;51.038;13.786;2023-03-21T10:17:54;5.90;;;4.03;;
15116;SDS011;7659;51.038;13.786;2023-03-21T10:20:22;6.28;;;4.18;;
15116;SDS011;7659;51.038;13.786;2023-03-21T10:22:49;7.15;;;4.10;;
15116;SDS011;7659;51.038;13.786;2023-03-21T10:25:16;7.88;;;4.97;;
15116;SDS011;7659;51.038;13.786;2023-03-21T10:27:42;6.53;;;4.13;;
15116;SDS011;7659;51.038;13.786;2023-03-21T10:30:08;6.10;;;3.65;;
15116;SDS011;7659;51.038;13.786;2023-03-21T10:32:38;6.03;;;3.95;;
15116;SDS011;7659;51.038;13.786;2023-03-21T10:35:04;6.47;;;3.47;;
15116;SDS011;7659;51.038;13.786;2023-03-21T10:37:29;5.68;;;3.53;;
15116;SDS011;7659;51.038;13.786;2023-03-21T10:39:56;7.32;;;4.10;;
15116;SDS011;7659;51.038;13.786;2023-03-21T10:42:26;4.72;;;3.40;;
15116;SDS011;7659;51.038;13.786;2023-03-21T10:44:52;8.15;;;4.05;;
15116;SDS011;7659;51.038;13.786;2023-03-21T10:47:19;5.40;;;3.85;;
15116;SDS011;7659;51.038;13.786;2023-03-21T10:49:46;7.18;;;4.32;;
15116;SDS011;7659;51.038;13.786;2023-03-21T10:52:12;8.45;;;4.65;;
15116;SDS011;7659;51.038;13.786;2023-03-21T10:54:38;7.20;;;4.45;;
15116;SDS011;7659;51.038;13.786;2023-03-21T10:57:14;9.55;;;4.65;;
15116;SDS011;7659;51.038;13.786;2023-03-21T10:59:50;6.10;;;3.47;;
15116;SDS011;7659;51.038;13.786;2023-03-21T11:02:36;6.47;;;3.90;;
15116;SDS011;7659;51.038;13.786;2023-03-21T11:07:57;6.03;;;3.03;;
15116;SDS011;7659;51.038;13.786;2023-03-21T11:10:31;5.03;;;3.25;;
15116;SDS011;7659;51.038;13.786;2023-03-21T11:13:00;4.25;;;3.17;;
15116;SDS011;7659;51.038;13.786;2023-03-21T11:15:31;5.80;;;3.10;;
15116;SDS011;7659;51.038;13.786;2023-03-21T11:17:57;7.20;;;2.95;;
15116;SDS011;7659;51.038;13.786;2023-03-21T11:20:23;4.88;;;2.70;;
15116;SDS011;7659;51.038;13.786;2023-03-21T11:22:48;3.63;;;2.72;;
15116;SDS011;7659;51.038;13.786;2023-03-21T11:25:40;5.00;;;3.03;;
15116;SDS011;7659;51.038;13.786;2023-03-21T11:28:04;4.15;;;2.42;;
15116;SDS011;7659;51.038;13.786;2023-03-21T11:30:31;4.25;;;2.90;;
15116;SDS011;7659;51.038;13.786;2023-03-21T11:32:57;3.78;;;2.47;;
15116;SDS011;7659;51.038;13.786;2023-03-21T11:35:43;5.85;;;2.80;;
15116;SDS011;7659;51.038;13.786;2023-03-21T11:38:25;4.63;;;2.97;;
15116;SDS011;7659;51.038;13.786;2023-03-21T11:40:52;3.30;;;2.35;;
15116;SDS011;7659;51.038;13.786;2023-03-21T11:45:54;4.75;;;2.50;;
15116;SDS011;7659;51.038;13.786;2023-03-21T11:48:20;2.50;;;1.95;;
15116;SDS011;7659;51.038;13.786;2023-03-21T11:50:47;5.30;;;2.30;;
15116;SDS011;7659;51.038;13.786;2023-03-21T11:53:19;7.45;;;2.83;;
15116;SDS011;7659;51.038;13.786;2023-03-21T12:09:42;2.60;;;2.10;;
15116;SDS011;7659;51.038;13.786;2023-03-21T12:22:37;3.55;;;2.30;;
15116;SDS011;7659;51.038;13.786;2023-03-21T12:25:10;3.60;;;2.20;;
15116;SDS011;7659;51.038;13.786;2023-03-21T12:33:31;3.25;;;2.10;;
15116;SDS011;7659;51.038;13.786;2023-03-21T12:35:41;5.10;;;2.42;;
15116;SDS011;7659;51.038;13.786;2023-03-21T12:38:22;4.72;;;2.30;;
15116;SDS011;7659;51.038;13.786;2023-03-21T12:46:26;6.57;;;2.97;;
15116;SDS011;7659;51.038;13.786;2023-03-21T12:49:00;3.55;;;2.40;;
15116;SDS011;7659;51.038;13.786;2023-03-21T12:51:46;4.10;;;2.30;;
15116;SDS011;7659;51.038;13.786;2023-03-21T12:54:22;4.53;;;2.20;;
15116;SDS011;7659;51.038;13.786;2023-03-21T12:59:26;6.65;;;2.40;;
15116;SDS011;7659;51.038;13.786;2023-03-21T13:01:55;3.25;;;1.90;;
15116;SDS011;7659;51.038;13.786;2023-03-21T13:04:33;5.13;;;2.17;;
15116;SDS011;7659;51.038;13.786;2023-03-21T13:07:01;3.17;;;2.25;;
15116;SDS011;7659;51.038;13.786;2023-03-21T13:09:31;3.55;;;2.00;;
15116;SDS011;7659;51.038;13.786;2023-03-21T13:11:59;3.85;;;2.08;;
15116;SDS011;7659;51.038;13.786;2023-03-21T13:14:33;3.88;;;2.22;;
15116;SDS011;7659;51.038;13.786;2023-03-21T13:17:05;4.43;;;1.98;;
15116;SDS011;7659;51.038;13.786;2023-03-21T13:19:37;6.50;;;1.90;;
15116;SDS011;7659;51.038;13.786;2023-03-21T13:24:49;3.90;;;2.37;;
15116;SDS011;7659;51.038;13.786;2023-03-21T13:27:25;4.00;;;1.80;;
15116;SDS011;7659;51.038;13.786;2023-03-21T13:29:53;3.13;;;1.88;;
15116;SDS011;7659;51.038;13.786;2023-03-21T13:32:29;4.10;;;1.73;;
15116;SDS011;7659;51.038;13.786;2023-03-21T13:35:00;5.60;;;1.95;;
15116;SDS011;7659;51.038;13.786;2023-03-21T13:37:33;4.03;;;2.00;;
15116;SDS011;7659;51.038;13.786;2023-03-21T13:40:03;3.78;;;2.05;;
15116;SDS011;7659;51.038;13.786;2023-03-21T13:45:00;3.08;;;2.10;;
15116;SDS011;7659;51.038;13.786;2023-03-21T13:47:31;4.90;;;1.90;;
15116;SDS011;7659;51.038;13.786;2023-03-21T13:52:42;4.88;;;1.85;;
15116;SDS011;7659;51.038;13.786;2023-03-21T13:55:14;4.80;;;2.40;;
15116;SDS011;7659;51.038;13.786;2023-03-21T13:57:40;3.13;;;2.35;;
15116;SDS011;7659;51.038;13.786;2023-03-21T14:02:52;6.05;;;2.20;;
15116;SDS011;7659;51.038;13.786;2023-03-21T14:05:20;3.42;;;2.10;;
15116;SDS011;7659;51.038;13.786;2023-03-21T14:07:47;5.55;;;2.33;;
15116;SDS011;7659;51.038;13.786;2023-03-21T14:13:10;2.08;;;1.70;;
15116;SDS011;7659;51.038;13.786;2023-03-21T14:15:47;3.30;;;2.03;;
15116;SDS011;7659;51.038;13.786;2023-03-21T14:18:18;7.38;;;2.10;;
15116;SDS011;7659;51.038;13.786;2023-03-21T14:20:43;5.03;;;1.95;;
15116;SDS011;7659;51.038;13.786;2023-03-21T14:23:13;3.22;;;1.90;;
15116;SDS011;7659;51.038;13.786;2023-03-21T14:25:39;2.22;;;1.60;;
15116;SDS011;7659;51.038;13.786;2023-03-21T14:28:07;4.15;;;1.85;;
15116;SDS011;7659;51.038;13.786;2023-03-21T14:30:36;4.53;;;2.22;;
15116;SDS011;7659;51.038;13.786;2023-03-21T14:33:05;3.72;;;2.13;;
15116;SDS011;7659;51.038;13.786;2023-03-21T14:35:31;4.50;;;1.90;;
15116;SDS011;7659;51.038;13.786;2023-03-21T14:38:04;3.97;;;1.77;;
15116;SDS011;7659;51.038;13.786;2023-03-21T14:40:31;3.55;;;1.88;;
15116;SDS011;7659;51.038;13.786;2023-03-21T14:42:57;6.38;;;2.03;;
15116;SDS011;7659;51.038;13.786;2023-03-21T14:45:28;3.45;;;2.00;;
15116;SDS011;7659;51.038;13.786;2023-03-21T14:47:55;4.57;;;1.98;;
15116;SDS011;7659;51.038;13.786;2023-03-21T14:50:28;6.05;;;1.92;;
15116;SDS011;7659;51.038;13.786;2023-03-21T14:52:56;5.45;;;2.10;;
15116;SDS011;7659;51.038;13.786;2023-03-21T14:55:22;4.65;;;2.08;;
15116;SDS011;7659;51.038;13.786;2023-03-21T14:57:48;4.13;;;1.98;;
15116;SDS011;7659;51.038;13.786;2023-03-21T15:00:16;2.80;;;1.92;;
15116;SDS011;7659;51.038;13.786;2023-03-21T15:02:43;3.63;;;1.67;;
15116;SDS011;7659;51.038;13.786;2023-03-21T15:05:18;5.15;;;1.77;;
15116;SDS011;7659;51.038;13.786;2023-03-21T15:07:51;2.85;;;2.03;;
15116;SDS011;7659;51.038;13.786;2023-03-21T15:10:18;3.63;;;2.20;;
15116;SDS011;7659;51.038;13.786;2023-03-21T15:12:50;8.40;;;2.10;;
15116;SDS011;7659;51.038;13.786;2023-03-21T15:15:16;6.32;;;4.38;;
15116;SDS011;7659;51.038;13.786;2023-03-21T15:17:42;6.45;;;4.35;;
15116;SDS011;7659;51.038;13.786;2023-03-21T15:20:12;4.82;;;2.33;;
15116;SDS011;7659;51.038;13.786;2023-03-21T15:22:38;5.20;;;2.00;;
15116;SDS011;7659;51.038;13.786;2023-03-21T15:25:06;3.65;;;1.77;;
15116;SDS011;7659;51.038;13.786;2023-03-21T15:27:33;4.93;;;2.05;;
15116;SDS011;7659;51.038;13.786;2023-03-21T15:30:00;4.13;;;2.05;;
15116;SDS011;7659;51.038;13.786;2023-03-21T15:32:26;4.55;;;1.90;;
15116;SDS011;7659;51.038;13.786;2023-03-21T15:34:52;4.13;;;2.20;;
15116;SDS011;7659;51.038;13.786;2023-03-21T15:37:25;4.30;;;1.90;;
15116;SDS011;7659;51.038;13.786;2023-03-21T15:39:51;3.22;;;1.75;;
15116;SDS011;7659;51.038;13.786;2023-03-21T15:45:07;4.50;;;2.10;;
15116;SDS011;7659;51.038;13.786;2023-03-21T15:50:09;2.22;;;1.70;;
15116;SDS011;7659;51.038;13.786;2023-03-21T15:52:36;4.88;;;2.00;;
15116;SDS011;7659;51.038;13.786;2023-03-21T15:55:01;5.38;;;2.00;;
15116;SDS011;7659;51.038;13.786;2023-03-21T15:57:35;3.95;;;1.88;;
15116;SDS011;7659;51.038;13.786;2023-03-21T16:00:06;7.13;;;2.00;;
15116;SDS011;7659;51.038;13.786;2023-03-21T16:02:57;3.88;;;2.05;;
15116;SDS011;7659;51.038;13.786;2023-03-21T16:07:49;5.30;;;2.30;;
15116;SDS011;7659;51.038;13.786;2023-03-21T16:12:53;4.20;;;2.40;;
15116;SDS011;7659;51.038;13.786;2023-03-21T16:15:18;2.95;;;1.73;;
15116;SDS011;7659;51.038;13.786;2023-03-21T16:17:50;3.75;;;2.05;;
15116;SDS011;7659;51.038;13.786;2023-03-21T16:20:17;2.40;;;1.58;;
15116;SDS011;7659;51.038;13.786;2023-03-21T16:22:44;6.57;;;2.28;;
15116;SDS011;7659;51.038;13.786;2023-03-21T16:25:10;3.47;;;2.13;;
15116;SDS011;7659;51.038;13.786;2023-03-21T16:27:36;3.47;;;2.03;;
15116;SDS011;7659;51.038;13.786;2023-03-21T16:30:01;3.15;;;2.05;;